Time;durP1;ratioP1;P1;durP2;ratioP2;P2;SDS_P1;SDS_P2;PMS_P1;PMS_P2;Temp;Humidity;BMP_temperature;BMP_pressure;BME280_temperature;BME280_humidity;BME280_pressure;Samples;Min_cycle;Max_cycle;Signal;HPM_P1;HPM_P2
2021/07/09 00:02:20;;;;;;;5.10;4.70;;;15.60;99.90;;;;;;5010791;28;20614;-86
2021/07/09 00:04:48;;;;;;;4.47;3.93;;;15.60;99.90;;;;;;5053238;28;20629;-87
2021/07/09 00:07:16;;;;;;;5.27;4.87;;;15.60;99.90;;;;;;5053312;28;20638;-86
2021/07/09 00:09:47;;;;;;;4.93;4.47;;;15.60;99.90;;;;;;5060572;28;20690;-86
2021/07/09 00:12:14;;;;;;;5.03;4.67;;;15.60;99.90;;;;;;5073375;28;20612;-86
2021/07/09 00:14:41;;;;;;;5.00;4.60;;;15.70;99.90;;;;;;5070234;28;20685;-86
2021/07/09 00:17:08;;;;;;;6.20;5.07;;;15.70;99.90;;;;;;5052131;28;21187;-87
2021/07/09 00:19:37;;;;;;;6.90;5.03;;;15.70;99.90;;;;;;5058106;28;20644;-87
2021/07/09 00:22:04;;;;;;;5.77;5.17;;;15.70;99.90;;;;;;5052532;28;20622;-87
2021/07/09 00:24:33;;;;;;;5.80;5.20;;;15.80;99.90;;;;;;5052672;28;20629;-87
2021/07/09 00:27:03;;;;;;;4.77;4.47;;;15.80;99.90;;;;;;5078379;28;21250;-86
2021/07/09 00:29:30;;;;;;;4.77;4.37;;;15.80;99.90;;;;;;5088021;28;20601;-86
2021/07/09 00:31:57;;;;;;;6.50;4.53;;;15.80;99.90;;;;;;5061469;28;21183;-86
2021/07/09 00:34:24;;;;;;;10.90;4.93;;;15.90;99.90;;;;;;5052430;28;21219;-87
2021/07/09 00:36:51;;;;;;;4.70;4.40;;;15.80;99.90;;;;;;5053217;28;20611;-86
2021/07/09 00:39:18;;;;;;;5.43;4.30;;;15.80;99.90;;;;;;5055295;28;20649;-86
2021/07/09 00:41:46;;;;;;;4.57;4.17;;;15.80;99.90;;;;;;5072941;28;20621;-86
2021/07/09 00:44:13;;;;;;;5.20;4.70;;;15.70;99.90;;;;;;5073100;28;20629;-86
2021/07/09 00:46:42;;;;;;;5.27;4.77;;;15.70;99.90;;;;;;5072399;28;20649;-86
2021/07/09 00:49:11;;;;;;;5.87;5.40;;;15.70;99.90;;;;;;5067577;28;21266;-86
2021/07/09 00:51:39;;;;;;;6.47;5.87;;;15.70;99.90;;;;;;5052983;28;20614;-86
2021/07/09 00:54:06;;;;;;;7.00;5.40;;;15.60;99.90;;;;;;5052716;28;21231;-85
2021/07/09 00:56:35;;;;;;;5.63;5.03;;;15.60;99.90;;;;;;5052257;28;20606;-86
2021/07/09 00:59:04;;;;;;;7.33;5.87;;;15.50;99.90;;;;;;5052761;28;20614;-86
2021/07/09 01:01:31;;;;;;;7.43;5.97;;;15.60;99.90;;;;;;5046943;28;20649;-86
2021/07/09 01:03:59;;;;;;;6.37;5.77;;;15.50;99.90;;;;;;5052363;28;20664;-86
2021/07/09 01:06:29;;;;;;;6.43;5.93;;;15.50;99.90;;;;;;5051394;28;20628;-87
2021/07/09 01:08:57;;;;;;;6.37;5.87;;;15.60;99.90;;;;;;5052771;28;20613;-86
2021/07/09 01:11:25;;;;;;;6.50;5.90;;;15.60;99.90;;;;;;5051905;28;20650;-87
2021/07/09 01:13:58;;;;;;;5.73;5.23;;;15.60;99.90;;;;;;5060953;28;20643;-86
2021/07/09 01:16:29;;;;;;;5.77;5.27;;;15.50;99.90;;;;;;5068956;28;21206;-86
2021/07/09 01:18:59;;;;;;;5.67;5.27;;;15.60;99.90;;;;;;5077115;28;20617;-87
2021/07/09 01:21:28;;;;;;;6.10;5.43;;;15.50;99.90;;;;;;5080803;28;20689;-86
2021/07/09 01:24:01;;;;;;;7.03;6.43;;;15.50;99.90;;;;;;5092635;28;20651;-86
2021/07/09 01:26:29;;;;;;;6.47;5.97;;;15.50;99.90;;;;;;5092050;28;21012;-86
2021/07/09 01:28:57;;;;;;;6.57;5.93;;;15.40;99.90;;;;;;5051555;28;20607;-84
2021/07/09 01:31:26;;;;;;;6.93;6.30;;;15.40;99.90;;;;;;5048933;28;20725;-85
2021/07/09 01:33:54;;;;;;;6.90;6.30;;;15.30;99.90;;;;;;5051918;28;20626;-85
2021/07/09 01:36:23;;;;;;;6.93;6.30;;;15.30;99.90;;;;;;5073617;28;20624;-85
2021/07/09 01:38:51;;;;;;;7.97;7.17;;;15.40;99.90;;;;;;5091954;28;20699;-85
2021/07/09 01:41:22;;;;;;;6.87;6.27;;;15.40;99.90;;;;;;5071416;28;20621;-86
2021/07/09 01:43:50;;;;;;;6.80;6.10;;;15.40;99.90;;;;;;5071970;28;20617;-86
2021/07/09 01:46:21;;;;;;;6.57;5.97;;;15.40;99.90;;;;;;5071637;28;20731;-86
2021/07/09 01:48:49;;;;;;;5.83;5.33;;;15.40;99.90;;;;;;5052513;28;20638;-86
2021/07/09 01:51:18;;;;;;;5.20;4.80;;;15.40;99.90;;;;;;5070244;28;20983;-85
2021/07/09 01:53:45;;;;;;;7.77;4.90;;;15.40;99.90;;;;;;5078960;28;20984;-85
2021/07/09 01:56:14;;;;;;;5.43;4.93;;;15.40;99.90;;;;;;5051517;28;20713;-85
2021/07/09 01:58:43;;;;;;;5.80;5.30;;;15.30;99.90;;;;;;5051901;28;20632;-85
2021/07/09 02:01:12;;;;;;;4.93;4.43;;;15.20;99.90;;;;;;5051895;28;20672;-85
2021/07/09 02:03:40;;;;;;;5.00;4.60;;;15.10;99.90;;;;;;5051394;28;20626;-85
2021/07/09 02:06:08;;;;;;;5.80;5.20;;;15.10;99.90;;;;;;5050978;28;20614;-86
2021/07/09 02:08:36;;;;;;;5.13;4.60;;;15.20;99.90;;;;;;5051397;28;20656;-85
2021/07/09 02:11:05;;;;;;;4.90;4.50;;;15.20;99.90;;;;;;5068021;28;21186;-86
2021/07/09 02:13:34;;;;;;;4.27;3.90;;;15.20;99.90;;;;;;5071316;28;20632;-86
2021/07/09 02:16:03;;;;;;;4.70;4.20;;;15.20;99.90;;;;;;5070863;28;20613;-85
2021/07/09 02:18:31;;;;;;;4.60;4.20;;;15.20;99.90;;;;;;5064236;28;21069;-86
2021/07/09 02:21:00;;;;;;;4.40;4.03;;;15.10;99.90;;;;;;5050368;28;20621;-86
2021/07/09 02:23:28;;;;;;;4.30;4.00;;;15.20;99.90;;;;;;5051226;28;20626;-85
2021/07/09 02:25:56;;;;;;;4.50;4.10;;;15.20;99.90;;;;;;5051051;28;20614;-85
2021/07/09 02:28:25;;;;;;;5.03;4.40;;;15.20;99.90;;;;;;5086363;28;21228;-86
2021/07/09 02:30:58;;;;;;;4.47;4.10;;;15.20;99.90;;;;;;5045882;28;20649;-86
2021/07/09 02:33:28;;;;;;;5.20;4.80;;;15.20;99.90;;;;;;5051077;28;21210;-85
2021/07/09 02:35:55;;;;;;;6.37;4.93;;;15.20;99.90;;;;;;5050265;28;20606;-86
2021/07/09 02:38:23;;;;;;;5.40;4.57;;;15.20;99.90;;;;;;5051114;28;20880;-86
2021/07/09 02:40:50;;;;;;;5.37;4.77;;;15.20;99.90;;;;;;5050036;28;20622;-86
2021/07/09 02:43:17;;;;;;;5.33;4.63;;;15.10;99.90;;;;;;5050726;28;20610;-86
2021/07/09 02:45:44;;;;;;;4.77;3.53;;;15.10;99.90;;;;;;5068404;28;21229;-86
2021/07/09 02:48:11;;;;;;;6.23;4.53;;;15.20;99.90;;;;;;5070901;28;20641;-86
2021/07/09 02:50:40;;;;;;;5.50;4.40;;;15.10;99.90;;;;;;5047542;28;20642;-86
2021/07/09 02:53:07;;;;;;;5.10;4.70;;;15.10;99.90;;;;;;5050985;28;20606;-86
2021/07/09 02:55:34;;;;;;;5.93;4.10;;;15.10;99.90;;;;;;5050523;28;20630;-87
2021/07/09 02:58:01;;;;;;;7.03;4.97;;;15.10;99.90;;;;;;5050491;28;20626;-87
2021/07/09 03:00:28;;;;;;;5.73;4.40;;;15.10;99.90;;;;;;5050914;28;20618;-87
2021/07/09 03:02:55;;;;;;;5.63;5.07;;;15.10;99.90;;;;;;5050800;28;20725;-86
2021/07/09 03:05:22;;;;;;;4.67;4.27;;;15.00;99.90;;;;;;5056242;28;20649;-86
2021/07/09 03:07:50;;;;;;;4.03;3.70;;;15.10;99.90;;;;;;5070657;28;20661;-87
2021/07/09 03:10:17;;;;;;;5.40;5.00;;;15.10;99.90;;;;;;5055958;28;20629;-86
2021/07/09 03:12:45;;;;;;;4.77;3.90;;;15.10;99.90;;;;;;5050236;28;20633;-87
2021/07/09 03:15:15;;;;;;;4.57;4.17;;;15.10;99.90;;;;;;5050196;28;21174;-87
2021/07/09 03:17:42;;;;;;;4.83;4.43;;;15.10;99.90;;;;;;5050427;28;20725;-87
2021/07/09 03:20:11;;;;;;;4.90;4.50;;;15.00;99.90;;;;;;5049035;28;20606;-87
2021/07/09 03:22:39;;;;;;;5.00;4.47;;;15.10;99.90;;;;;;5050335;28;20617;-87
2021/07/09 03:25:09;;;;;;;5.50;4.20;;;15.10;99.90;;;;;;5049860;28;20646;-87
2021/07/09 03:27:37;;;;;;;5.07;4.57;;;15.10;99.90;;;;;;5072829;28;20749;-86
2021/07/09 03:30:04;;;;;;;5.40;4.40;;;15.10;99.90;;;;;;5080100;28;20856;-87
2021/07/09 03:32:31;;;;;;;4.97;4.57;;;15.10;99.90;;;;;;5075008;28;20933;-87
2021/07/09 03:34:58;;;;;;;7.50;4.80;;;15.00;99.90;;;;;;5069008;28;20637;-86
2021/07/09 03:37:25;;;;;;;7.30;5.10;;;15.00;99.90;;;;;;5074413;28;21236;-86
2021/07/09 03:39:52;;;;;;;5.60;5.13;;;15.10;99.90;;;;;;5063182;28;21045;-86
2021/07/09 03:42:21;;;;;;;5.10;4.60;;;15.00;99.90;;;;;;5054697;28;20713;-86
2021/07/09 03:44:48;;;;;;;11.13;5.90;;;15.00;99.90;;;;;;5064414;28;20605;-86
2021/07/09 03:47:15;;;;;;;5.30;4.83;;;15.00;99.90;;;;;;5074046;28;21145;-87
2021/07/09 03:49:42;;;;;;;5.83;5.30;;;15.00;99.90;;;;;;5065535;28;20632;-86
2021/07/09 03:52:09;;;;;;;6.40;4.90;;;15.00;99.90;;;;;;5053823;28;20965;-86
2021/07/09 03:54:37;;;;;;;6.20;4.90;;;14.90;99.90;;;;;;5073963;28;20609;-86
2021/07/09 03:57:05;;;;;;;7.83;5.00;;;15.00;99.90;;;;;;5074022;28;20678;-86
2021/07/09 03:59:33;;;;;;;5.20;4.70;;;15.00;99.90;;;;;;5073010;28;20610;-86
2021/07/09 04:02:00;;;;;;;4.63;4.30;;;15.00;99.90;;;;;;5074106;28;20625;-86
2021/07/09 04:04:27;;;;;;;4.93;4.63;;;15.00;99.90;;;;;;5065430;28;20637;-86
2021/07/09 04:06:54;;;;;;;11.57;5.33;;;14.90;99.90;;;;;;5073434;28;20670;-87
2021/07/09 04:09:21;;;;;;;5.33;4.83;;;14.90;99.90;;;;;;5068371;28;21261;-87
2021/07/09 04:11:48;;;;;;;4.40;4.10;;;14.90;99.90;;;;;;5053833;28;21199;-86
2021/07/09 04:14:15;;;;;;;5.00;4.60;;;14.90;99.90;;;;;;5053954;28;20629;-86
2021/07/09 04:16:43;;;;;;;5.50;5.10;;;14.90;99.90;;;;;;5053568;28;20624;-86
2021/07/09 04:19:10;;;;;;;5.00;4.50;;;14.90;99.90;;;;;;5052748;28;21218;-86
2021/07/09 04:21:38;;;;;;;7.00;5.33;;;14.90;99.90;;;;;;5077390;28;20604;-86
2021/07/09 04:24:05;;;;;;;7.70;5.40;;;14.90;99.90;;;;;;5076211;28;20720;-86
2021/07/09 04:26:32;;;;;;;7.43;5.03;;;15.00;99.90;;;;;;5073345;28;21058;-86
2021/07/09 04:29:00;;;;;;;4.80;4.40;;;15.00;99.90;;;;;;5072832;28;20648;-86
2021/07/09 04:31:27;;;;;;;5.77;5.17;;;14.90;99.90;;;;;;5073228;28;20612;-86
2021/07/09 04:33:56;;;;;;;4.50;4.10;;;14.90;99.90;;;;;;5072930;28;20629;-87
2021/07/09 04:36:23;;;;;;;5.60;5.10;;;15.00;99.90;;;;;;5072834;28;20608;-86
2021/07/09 04:38:49;;;;;;;5.20;4.73;;;15.00;99.90;;;;;;5072822;28;20637;-86
2021/07/09 04:41:17;;;;;;;8.77;4.73;;;15.10;99.90;;;;;;5051557;28;20613;-86
2021/07/09 04:43:44;;;;;;;4.80;4.40;;;15.10;99.90;;;;;;5053063;28;20650;-87
2021/07/09 04:46:10;;;;;;;5.57;4.10;;;15.00;99.90;;;;;;5085423;28;21006;-86
2021/07/09 04:48:38;;;;;;;4.00;3.70;;;14.90;99.90;;;;;;5075069;28;20638;-86
2021/07/09 04:51:06;;;;;;;4.73;4.43;;;14.90;99.90;;;;;;5054082;28;21166;-86
2021/07/09 04:53:33;;;;;;;4.47;4.03;;;14.90;99.90;;;;;;5053029;28;20633;-86
2021/07/09 04:56:00;;;;;;;5.80;4.27;;;14.90;99.90;;;;;;5052779;28;20614;-87
2021/07/09 04:58:27;;;;;;;4.30;3.90;;;14.90;99.90;;;;;;5052869;28;21117;-86
2021/07/09 05:00:54;;;;;;;5.33;4.83;;;14.90;99.90;;;;;;5052642;28;20622;-86
2021/07/09 05:03:21;;;;;;;4.20;3.80;;;15.00;99.90;;;;;;5052273;28;20768;-86
2021/07/09 05:05:48;;;;;;;5.13;4.63;;;14.90;99.90;;;;;;5051962;28;21283;-86
2021/07/09 05:08:16;;;;;;;4.83;4.30;;;14.90;99.90;;;;;;5052101;28;21026;-86
2021/07/09 05:10:43;;;;;;;5.30;4.77;;;14.90;99.90;;;;;;5066983;28;20617;-85
2021/07/09 05:13:10;;;;;;;5.10;4.70;;;14.90;99.90;;;;;;5072186;28;21127;-85
2021/07/09 05:15:38;;;;;;;4.20;3.90;;;15.00;99.90;;;;;;5071429;28;20645;-85
2021/07/09 05:18:05;;;;;;;5.00;4.00;;;14.90;99.90;;;;;;5071916;28;20614;-86
2021/07/09 05:20:31;;;;;;;3.60;3.33;;;15.00;99.90;;;;;;5058764;28;20622;-85
2021/07/09 05:22:58;;;;;;;4.60;4.27;;;14.90;99.90;;;;;;5052340;28;20660;-84
2021/07/09 05:25:27;;;;;;;4.57;4.27;;;14.90;99.90;;;;;;5051905;28;20978;-84
2021/07/09 05:27:54;;;;;;;5.10;4.70;;;14.90;99.90;;;;;;5078918;28;21243;-85
2021/07/09 05:30:21;;;;;;;5.07;4.57;;;14.90;99.90;;;;;;5070575;28;20625;-86
2021/07/09 05:32:48;;;;;;;4.83;4.43;;;15.00;99.90;;;;;;5067302;28;20629;-86
2021/07/09 05:35:16;;;;;;;6.37;5.17;;;14.90;99.90;;;;;;5072243;28;20624;-86
2021/07/09 05:37:43;;;;;;;4.90;4.40;;;14.90;99.90;;;;;;5073886;28;20629;-86
2021/07/09 05:40:11;;;;;;;4.70;4.30;;;14.90;99.90;;;;;;5072568;28;20617;-86
2021/07/09 05:42:40;;;;;;;5.30;4.90;;;14.80;99.90;;;;;;5072937;28;20656;-86
2021/07/09 05:45:08;;;;;;;4.10;3.80;;;14.80;99.90;;;;;;5072892;28;20621;-87
2021/07/09 05:47:35;;;;;;;4.37;3.97;;;14.90;99.90;;;;;;5072986;28;20621;-86
2021/07/09 05:50:02;;;;;;;5.03;4.63;;;14.80;99.90;;;;;;5073255;28;21031;-87
2021/07/09 05:52:29;;;;;;;4.20;3.90;;;14.80;99.90;;;;;;5068358;28;21018;-86
2021/07/09 05:54:56;;;;;;;4.77;4.47;;;14.80;99.90;;;;;;5053534;28;20641;-86
2021/07/09 05:57:23;;;;;;;8.30;4.97;;;14.90;99.90;;;;;;5052814;28;20784;-86
2021/07/09 05:59:51;;;;;;;5.03;4.63;;;14.90;99.90;;;;;;5060768;28;20621;-85
2021/07/09 06:02:18;;;;;;;5.73;4.60;;;14.90;99.90;;;;;;5073865;28;21126;-86
2021/07/09 06:04:45;;;;;;;5.37;4.97;;;14.90;99.90;;;;;;5072876;28;20657;-86
2021/07/09 06:07:12;;;;;;;8.90;7.80;;;15.00;99.90;;;;;;5073071;28;20617;-86
2021/07/09 06:09:40;;;;;;;5.17;4.67;;;14.90;99.90;;;;;;5072325;28;20653;-86
2021/07/09 06:12:07;;;;;;;6.23;4.70;;;15.00;99.90;;;;;;5072997;28;20625;-86
2021/07/09 06:14:34;;;;;;;5.17;4.77;;;15.00;99.90;;;;;;5072966;28;20649;-85
2021/07/09 06:17:03;;;;;;;5.70;5.10;;;15.00;99.90;;;;;;5074102;28;20934;-86
2021/07/09 06:19:30;;;;;;;7.17;5.00;;;15.00;99.90;;;;;;5068589;28;20633;-85
2021/07/09 06:21:57;;;;;;;6.83;5.60;;;15.00;99.90;;;;;;5063691;28;21110;-85
2021/07/09 06:24:24;;;;;;;5.70;5.20;;;15.10;99.90;;;;;;5072510;28;21058;-86
2021/07/09 06:26:51;;;;;;;5.93;5.43;;;15.10;99.90;;;;;;5077641;28;20616;-87
2021/07/09 06:29:18;;;;;;;6.27;5.77;;;15.10;99.90;;;;;;5090162;28;20695;-87
2021/07/09 06:31:45;;;;;;;6.03;5.57;;;15.10;99.90;;;;;;5054660;28;20630;-87
2021/07/09 06:34:14;;;;;;;4.97;4.57;;;15.10;99.90;;;;;;5063759;28;20641;-87
2021/07/09 06:36:42;;;;;;;6.23;5.73;;;15.10;99.90;;;;;;5071032;28;20617;-88
2021/07/09 06:39:09;;;;;;;7.13;6.10;;;15.20;99.90;;;;;;5071999;28;20617;-88
2021/07/09 06:41:36;;;;;;;6.50;6.00;;;15.30;99.90;;;;;;5072222;28;20624;-89
2021/07/09 06:44:03;;;;;;;6.03;5.47;;;15.30;99.90;;;;;;5072411;28;20605;-87
2021/07/09 06:46:31;;;;;;;6.30;5.80;;;15.20;99.90;;;;;;5073273;28;20621;-89
2021/07/09 06:48:58;;;;;;;7.83;7.03;;;15.40;99.90;;;;;;5073220;28;20733;-88
2021/07/09 06:51:27;;;;;;;5.73;5.33;;;15.40;99.90;;;;;;5053384;28;21227;-89
2021/07/09 06:53:54;;;;;;;6.37;5.87;;;15.50;99.90;;;;;;5052732;28;20626;-88
2021/07/09 06:56:21;;;;;;;7.40;6.70;;;15.60;99.90;;;;;;5053386;28;20606;-89
2021/07/09 06:58:48;;;;;;;6.47;5.83;;;15.60;99.90;;;;;;5056579;28;20637;-88
2021/07/09 07:01:15;;;;;;;6.63;6.10;;;15.70;99.90;;;;;;5073100;28;20622;-88
2021/07/09 07:03:42;;;;;;;6.50;5.77;;;15.70;99.90;;;;;;5072896;28;20633;-89
2021/07/09 07:06:11;;;;;;;6.53;6.03;;;15.90;99.90;;;;;;5072435;28;21095;-88
2021/07/09 07:08:40;;;;;;;7.70;5.50;;;16.00;99.90;;;;;;5073101;28;20636;-87
2021/07/09 07:11:09;;;;;;;7.73;6.97;;;16.00;99.90;;;;;;5072467;28;20618;-88
2021/07/09 07:13:36;;;;;;;6.30;5.70;;;16.10;99.90;;;;;;5073836;28;20670;-88
2021/07/09 07:16:04;;;;;;;6.20;5.70;;;16.10;99.90;;;;;;5072538;28;20735;-87
2021/07/09 07:18:31;;;;;;;5.97;5.57;;;16.10;99.90;;;;;;5068916;28;20607;-87
2021/07/09 07:20:58;;;;;;;7.10;6.50;;;16.10;99.90;;;;;;5062418;28;20622;-87
2021/07/09 07:23:25;;;;;;;7.10;6.57;;;16.20;99.90;;;;;;5080187;28;21310;-87
2021/07/09 07:25:54;;;;;;;7.60;6.90;;;16.30;99.90;;;;;;5071235;28;20614;-87
2021/07/09 07:28:21;;;;;;;8.30;7.60;;;16.30;99.90;;;;;;5071037;28;21160;-88
2021/07/09 07:30:48;;;;;;;6.80;6.27;;;16.30;99.90;;;;;;5070203;28;20619;-88
2021/07/09 07:33:15;;;;;;;8.57;7.40;;;16.20;99.90;;;;;;5071660;28;20617;-87
2021/07/09 07:35:43;;;;;;;7.20;6.60;;;16.30;99.90;;;;;;5071845;28;20640;-88
2021/07/09 07:38:10;;;;;;;7.63;7.00;;;16.40;99.90;;;;;;5071486;28;20726;-87
2021/07/09 07:40:38;;;;;;;7.70;7.10;;;16.60;99.90;;;;;;5070177;28;20610;-88
2021/07/09 07:43:07;;;;;;;7.57;6.80;;;16.70;99.90;;;;;;5072157;28;20644;-88
2021/07/09 07:45:34;;;;;;;8.27;7.00;;;16.90;99.90;;;;;;5071039;28;20611;-88
2021/07/09 07:48:02;;;;;;;6.63;6.13;;;16.90;99.90;;;;;;5060032;28;20644;-88
2021/07/09 07:50:31;;;;;;;7.70;7.00;;;17.00;99.90;;;;;;5068311;28;21212;-88
2021/07/09 07:52:58;;;;;;;7.60;6.90;;;17.00;99.90;;;;;;5072940;28;20618;-88
2021/07/09 07:55:26;;;;;;;7.63;7.03;;;17.10;99.90;;;;;;5073354;28;20633;-87
2021/07/09 07:57:56;;;;;;;7.57;6.90;;;17.10;99.90;;;;;;5071741;28;21000;-88
2021/07/09 08:00:25;;;;;;;8.20;7.50;;;17.10;99.90;;;;;;5070465;28;20634;-88
2021/07/09 08:02:52;;;;;;;10.10;8.10;;;17.20;99.90;;;;;;5069986;28;20624;-89
2021/07/09 08:05:19;;;;;;;8.27;7.60;;;17.30;99.90;;;;;;5070284;28;21009;-88
2021/07/09 08:07:46;;;;;;;7.93;7.33;;;17.40;99.90;;;;;;5072356;28;20739;-87
2021/07/09 08:10:13;;;;;;;8.63;7.83;;;17.30;99.90;;;;;;5071809;28;20652;-89
2021/07/09 08:12:40;;;;;;;7.70;7.00;;;17.50;99.90;;;;;;5070855;28;21204;-89
2021/07/09 08:15:08;;;;;;;7.43;6.73;;;17.60;99.90;;;;;;5072275;28;20636;-88
2021/07/09 08:17:37;;;;;;;7.00;6.40;;;17.90;99.90;;;;;;5075516;28;20628;-87
2021/07/09 08:20:06;;;;;;;6.60;5.87;;;18.00;99.90;;;;;;5070114;28;20741;-88
2021/07/09 08:22:37;;;;;;;7.07;6.17;;;18.30;99.90;;;;;;5055918;28;20724;-89
2021/07/09 08:25:07;;;;;;;6.23;5.63;;;18.30;99.90;;;;;;5054289;28;20664;-88
2021/07/09 08:27:34;;;;;;;5.63;5.23;;;18.30;99.90;;;;;;5069141;28;20621;-86
2021/07/09 08:30:01;;;;;;;6.33;5.80;;;18.30;99.90;;;;;;5074651;28;21001;-86
2021/07/09 08:32:28;;;;;;;5.40;5.00;;;18.20;99.90;;;;;;5075534;28;21172;-87
2021/07/09 08:34:57;;;;;;;5.63;5.13;;;18.20;99.90;;;;;;5073853;28;20644;-87
2021/07/09 08:37:25;;;;;;;5.70;4.73;;;18.10;99.90;;;;;;5062675;28;20632;-89
2021/07/09 08:39:55;;;;;;;5.70;5.30;;;18.00;99.90;;;;;;5075334;28;21253;-87
2021/07/09 08:42:22;;;;;;;7.43;5.97;;;18.00;99.90;;;;;;5075429;28;20636;-87
2021/07/09 08:44:51;;;;;;;5.80;5.30;;;17.90;99.90;;;;;;5076617;28;20621;-88
2021/07/09 08:51:01;;;;;;;5.03;4.53;;;18.10;99.90;;;;;;5055012;28;20668;-89
2021/07/09 08:53:37;;;;;;;7.03;5.40;;;18.10;99.90;;;;;;5074958;28;20690;-89
2021/07/09 08:57:01;;;;;;;;;;;;;;;;;;;;;
2021/07/09 08:59:30;;;;;;;6.30;5.57;;;18.20;99.90;;;;;;5056221;28;20672;-88
2021/07/09 09:02:03;;;;;;;5.97;5.47;;;18.20;99.90;;;;;;5056567;28;20618;-87
2021/07/09 09:04:32;;;;;;;6.97;6.40;;;18.20;99.90;;;;;;5064187;28;20676;-88
2021/07/09 09:07:04;;;;;;;6.27;5.77;;;18.50;99.90;;;;;;5076012;28;20621;-89
2021/07/09 09:09:31;;;;;;;6.17;5.67;;;18.70;99.90;;;;;;5076600;28;20649;-89
2021/07/09 09:12:05;;;;;;;6.17;5.70;;;18.70;99.90;;;;;;5070272;28;20628;-89
2021/07/09 09:14:46;;;;;;;5.50;5.00;;;18.80;99.90;;;;;;5059422;28;20621;-89
2021/07/09 09:17:35;;;;;;;5.73;5.10;;;18.90;99.90;;;;;;5066139;28;21050;-89
2021/07/09 09:20:11;;;;;;;5.60;5.13;;;19.00;99.90;;;;;;5061786;28;20701;-88
2021/07/09 09:22:58;;;;;;;5.70;5.27;;;19.20;99.90;;;;;;5067427;28;20624;-87
2021/07/09 09:25:27;;;;;;;6.03;5.33;;;19.20;99.90;;;;;;5074756;28;20624;-87
2021/07/09 09:28:03;;;;;;;5.60;5.20;;;19.10;99.90;;;;;;5076147;28;21321;-87
2021/07/09 09:30:36;;;;;;;5.50;5.10;;;19.10;99.90;;;;;;5072752;28;20752;-88
2021/07/09 09:33:07;;;;;;;5.97;5.47;;;19.10;99.90;;;;;;5073877;28;20959;-87
2021/07/09 09:35:40;;;;;;;5.77;5.23;;;19.10;99.90;;;;;;5073687;28;20633;-88
2021/07/09 09:38:16;;;;;;;5.53;5.13;;;19.00;99.90;;;;;;5073526;28;20617;-88
2021/07/09 09:40:47;;;;;;;5.43;5.03;;;18.90;99.90;;;;;;5075916;28;20602;-87
2021/07/09 09:43:16;;;;;;;5.17;4.77;;;18.90;99.90;;;;;;5073989;28;20618;-87
2021/07/09 09:45:45;;;;;;;6.77;6.20;;;19.10;99.90;;;;;;5074716;28;20657;-87
2021/07/09 09:48:18;;;;;;;5.80;5.30;;;19.20;99.90;;;;;;5075611;28;20637;-90
2021/07/09 09:50:48;;;;;;;5.17;4.77;;;19.30;99.90;;;;;;5075997;28;20690;-88
2021/07/09 09:53:31;;;;;;;5.10;4.80;;;19.50;99.90;;;;;;5075552;28;20613;-89
2021/07/09 09:56:09;;;;;;;7.17;5.77;;;19.60;99.90;;;;;;5075106;28;20634;-89
2021/07/09 09:58:37;;;;;;;5.50;5.03;;;19.60;99.90;;;;;;5075139;28;20630;-90
2021/07/09 10:01:07;;;;;;;5.70;4.73;;;19.30;99.90;;;;;;5074264;28;21066;-87
2021/07/09 10:03:35;;;;;;;6.13;5.63;;;19.20;99.90;;;;;;5074750;28;20630;-87
2021/07/09 10:06:03;;;;;;;5.63;4.90;;;19.20;99.90;;;;;;5084389;28;20617;-88
2021/07/09 10:08:34;;;;;;;6.03;5.53;;;19.30;99.90;;;;;;5075411;28;20621;-87
2021/07/09 10:11:05;;;;;;;7.07;6.37;;;19.70;99.90;;;;;;5064244;28;20678;-90
2021/07/09 10:13:39;;;;;;;6.07;5.57;;;19.50;99.90;;;;;;5057305;28;20614;-88
2021/07/09 10:16:26;;;;;;;6.80;5.50;;;19.80;99.90;;;;;;5078937;28;20696;-89
2021/07/09 10:18:57;;;;;;;6.60;5.97;;;19.70;99.90;;;;;;5077688;28;20635;-88
2021/07/09 10:21:24;;;;;;;6.13;5.73;;;19.70;99.90;;;;;;5074243;28;20613;-87
2021/07/09 10:23:52;;;;;;;7.17;5.83;;;19.70;99.90;;;;;;5071991;28;20606;-88
2021/07/09 10:26:20;;;;;;;6.10;5.60;;;19.60;99.90;;;;;;5071822;28;20638;-89
2021/07/09 10:29:14;;;;;;;6.80;6.10;;;19.40;99.90;;;;;;5066655;28;21190;-88
2021/07/09 10:31:43;;;;;;;6.10;5.60;;;19.00;99.90;;;;;;5077489;28;20772;-89
2021/07/09 10:34:35;;;;;;;8.73;7.10;;;19.00;99.90;;;;;;5073601;28;20613;-89
2021/07/09 10:37:05;;;;;;;6.20;5.80;;;18.80;99.90;;;;;;5069144;28;20721;-88
2021/07/09 10:39:38;;;;;;;7.33;6.40;;;18.70;99.90;;;;;;5033137;28;20607;-88
2021/07/09 10:42:23;;;;;;;7.50;6.90;;;18.90;99.90;;;;;;5044288;28;20630;-89
2021/07/09 10:45:10;;;;;;;9.50;8.57;;;18.80;99.90;;;;;;5053153;28;20624;-87
2021/07/09 10:47:42;;;;;;;10.17;9.33;;;18.80;99.90;;;;;;5043363;28;21257;-88
2021/07/09 10:50:11;;;;;;;10.33;9.23;;;19.00;99.90;;;;;;5033818;28;20651;-88
2021/07/09 10:52:57;;;;;;;10.30;8.80;;;19.20;99.90;;;;;;5033776;28;20630;-88
2021/07/09 10:55:47;;;;;;;8.97;8.17;;;19.30;99.90;;;;;;5033667;28;20991;-88
2021/07/09 10:58:39;;;;;;;9.30;8.50;;;19.70;99.90;;;;;;5049803;28;20653;-87
2021/07/09 11:01:31;;;;;;;8.70;7.90;;;20.10;99.90;;;;;;5054459;28;20626;-88
2021/07/09 11:04:15;;;;;;;9.27;8.43;;;20.70;99.20;;;;;;5054364;28;21023;-90
2021/07/09 11:06:43;;;;;;;11.60;8.53;;;21.10;98.50;;;;;;5054448;28;20639;-90
2021/07/09 11:09:13;;;;;;;8.67;7.83;;;21.60;99.70;;;;;;5054830;28;20616;-89
2021/07/09 11:11:47;;;;;;;9.20;8.50;;;22.10;97.70;;;;;;5038974;28;20722;-89
2021/07/09 11:14:17;;;;;;;9.30;8.60;;;22.40;95.20;;;;;;5039798;28;20620;-88
2021/07/09 11:16:45;;;;;;;8.40;7.60;;;22.60;95.10;;;;;;5054312;28;20986;-90
2021/07/09 11:19:16;;;;;;;7.43;6.93;;;22.70;93.40;;;;;;5055094;28;20648;-89
2021/07/09 11:21:54;;;;;;;8.13;7.43;;;22.80;93.70;;;;;;5053871;28;20727;-90
2021/07/09 11:24:24;;;;;;;8.37;7.60;;;23.10;93.80;;;;;;5054037;28;21109;-90
2021/07/09 11:26:54;;;;;;;9.07;8.17;;;22.70;93.80;;;;;;5056900;28;20636;-89
2021/07/09 11:29:27;;;;;;;8.13;7.53;;;22.00;92.80;;;;;;5054548;28;20615;-88
2021/07/09 11:31:55;;;;;;;8.70;8.00;;;21.40;93.50;;;;;;5054622;28;20671;-90
2021/07/09 11:34:25;;;;;;;9.00;8.27;;;21.30;95.70;;;;;;5053987;28;21233;-88
2021/07/09 11:36:55;;;;;;;9.90;9.10;;;20.90;94.80;;;;;;5051523;28;20632;-86
2021/07/09 11:39:24;;;;;;;10.03;8.13;;;20.80;94.90;;;;;;5042135;28;21206;-87
2021/07/09 11:41:59;;;;;;;9.10;8.40;;;20.60;95.20;;;;;;5034091;28;20711;-87
2021/07/09 11:44:28;;;;;;;8.40;7.60;;;21.30;95.90;;;;;;5033934;28;20630;-87
2021/07/09 11:46:57;;;;;;;9.33;8.20;;;22.20;95.30;;;;;;5037131;28;20616;-87
2021/07/09 11:49:26;;;;;;;8.57;7.97;;;23.20;93.30;;;;;;5034044;28;21171;-88
2021/07/09 11:51:55;;;;;;;6.93;6.43;;;23.20;90.10;;;;;;5037767;28;20641;-88
2021/07/09 11:54:25;;;;;;;7.80;7.10;;;23.40;91.70;;;;;;5037696;28;20619;-88
2021/07/09 11:56:57;;;;;;;7.37;6.77;;;23.80;91.40;;;;;;5037879;28;20645;-88
2021/07/09 11:59:24;;;;;;;6.20;5.70;;;24.10;90.40;;;;;;5041248;28;21178;-88
2021/07/09 12:02:27;;;;;;;6.57;5.97;;;24.80;87.00;;;;;;5055724;28;20714;-88
2021/07/09 12:04:56;;;;;;;6.60;6.10;;;25.90;88.10;;;;;;4995203;28;20648;-89
2021/07/09 12:07:29;;;;;;;6.80;6.30;;;26.80;80.10;;;;;;4995588;28;20625;-88
2021/07/09 12:09:59;;;;;;;5.83;5.43;;;26.50;78.80;;;;;;5026739;28;20959;-89
2021/07/09 12:12:32;;;;;;;6.27;5.87;;;26.90;79.40;;;;;;5045634;28;20657;-89
2021/07/09 12:15:04;;;;;;;6.53;6.07;;;27.60;74.40;;;;;;5057031;28;20622;-89
2021/07/09 12:17:33;;;;;;;7.10;6.60;;;26.90;77.60;;;;;;5057785;28;20614;-88
2021/07/09 12:20:04;;;;;;;7.53;7.03;;;26.40;77.70;;;;;;5057769;28;20618;-89
2021/07/09 12:22:35;;;;;;;5.70;5.20;;;26.00;77.50;;;;;;5057568;28;21142;-90
2021/07/09 12:25:07;;;;;;;6.27;5.67;;;25.50;74.50;;;;;;5056475;28;20641;-89
2021/07/09 12:27:38;;;;;;;7.43;6.83;;;25.00;78.80;;;;;;5059017;28;20653;-87
2021/07/09 12:30:09;;;;;;;7.47;6.27;;;25.10;81.00;;;;;;5073075;28;20683;-88
2021/07/09 12:32:48;;;;;;;6.53;6.03;;;25.20;84.80;;;;;;5057294;28;20629;-87
2021/07/09 12:35:17;;;;;;;5.60;5.10;;;26.70;74.80;;;;;;5055837;28;20716;-86
2021/07/09 12:37:44;;;;;;;5.33;4.93;;;27.30;71.70;;;;;;5056732;28;20618;-89
2021/07/09 12:40:18;;;;;;;4.47;4.17;;;27.50;69.80;;;;;;5056250;28;20654;-86
2021/07/09 12:42:48;;;;;;;4.80;4.50;;;28.10;67.30;;;;;;5057190;28;20614;-86
2021/07/09 12:45:18;;;;;;;5.13;4.77;;;27.60;70.40;;;;;;5056900;28;21162;-86
2021/07/09 12:47:54;;;;;;;5.30;4.90;;;26.80;69.90;;;;;;5046018;28;20651;-86
2021/07/09 12:50:23;;;;;;;6.47;5.97;;;25.60;72.40;;;;;;5047717;28;20649;-86
2021/07/09 12:52:50;;;;;;;6.00;5.60;;;25.00;73.00;;;;;;5056726;28;20697;-86
2021/07/09 12:55:41;;;;;;;5.33;4.93;;;24.50;76.20;;;;;;5039466;28;20619;-86
2021/07/09 12:58:15;;;;;;;5.33;4.77;;;24.60;79.40;;;;;;5034714;28;20625;-86
2021/07/09 13:00:44;;;;;;;4.20;3.90;;;26.20;76.10;;;;;;5036026;28;20615;-87
2021/07/09 13:03:16;;;;;;;4.63;4.33;;;28.00;76.30;;;;;;5048590;28;21186;-89
2021/07/09 13:05:43;;;;;;;4.40;4.10;;;29.00;74.10;;;;;;5048896;28;21001;-88